< < Back
Terminal Aerodrome Forecast


Current Version              Previous Versions:   1  2  3  4  5  6  7  8  9  

Terminal Aerodrome Forecast

990
FTUS42 KGSP 300528
TAFCLT
TAF
KCLT 300528Z 3006/3106 02008KT P6SM SCT050 BKN250
     FM300900 01006KT P6SM FEW200
     FM302300 04004KT P6SM SKC=

Latest METAR

759
SAUS70 KWBC 301600 RRA
MTRCLT
METAR KCLT 301552Z 02007KT 10SM FEW060 17/02 A3007 RMK AO2 SLP179
T01720017


USA.gov is the U.S. government's official web portal to all federal, state and local government web resources and services.